Time;durP1;ratioP1;P1;durP2;ratioP2;P2;SDS_P1;SDS_P2;PMS_P1;PMS_P2;Temp;Humidity;BMP_temperature;BMP_pressure;BME280_temperature;BME280_humidity;BME280_pressure;Samples;Min_cycle;Max_cycle;Signal;HPM_P1;HPM_P2
2022/10/21 00:02:04;;;;;;;12.73;5.03;;;;;;;14.68;100.00;100859.44;5012113;28;98078;-29
2022/10/21 00:04:31;;;;;;;11.68;5.50;;;;;;;14.68;100.00;100851.25;5010786;28;97491;-29
2022/10/21 00:06:56;;;;;;;10.70;4.97;;;;;;;14.68;100.00;100848.53;5010738;28;100439;-30
2022/10/21 00:09:21;;;;;;;12.23;5.50;;;;;;;14.69;100.00;100850.28;5011993;28;96633;-31
2022/10/21 00:11:47;;;;;;;15.48;5.32;;;;;;;14.69;100.00;100842.09;5012151;28;96885;-29
2022/10/21 00:14:12;;;;;;;10.95;5.70;;;;;;;14.70;100.00;100838.38;5011710;28;98037;-30
2022/10/21 00:16:37;;;;;;;16.67;6.68;;;;;;;14.71;100.00;100834.66;5012243;28;97625;-29
2022/10/21 00:19:03;;;;;;;15.05;5.22;;;;;;;14.71;100.00;100834.66;5011091;28;119390;-30
2022/10/21 00:21:28;;;;;;;17.58;5.75;;;;;;;14.74;100.00;100831.69;5011877;28;96965;-30
2022/10/21 00:23:53;;;;;;;16.90;5.38;;;;;;;14.72;100.00;100828.22;5011190;28;97527;-31
2022/10/21 00:26:19;;;;;;;11.18;4.85;;;;;;;14.73;100.00;100826.34;5011962;28;97286;-30
2022/10/21 00:28:45;;;;;;;16.15;5.57;;;;;;;14.72;100.00;100828.22;5010299;28;96685;-29
2022/10/21 00:31:12;;;;;;;21.13;6.47;;;;;;;14.71;100.00;100822.91;5011808;28;96817;-31
2022/10/21 00:33:38;;;;;;;19.65;6.18;;;;;;;14.73;100.00;100831.81;5010255;28;100929;-31
2022/10/21 00:36:06;;;;;;;14.48;5.07;;;;;;;14.69;100.00;100827.59;5010496;28;99748;-30
2022/10/21 00:38:32;;;;;;;13.13;5.35;;;;;;;14.67;100.00;100826.84;5010365;28;96774;-31
2022/10/21 00:40:58;;;;;;;17.67;5.65;;;;;;;14.64;100.00;100814.34;5010722;28;96518;-30
2022/10/21 00:43:25;;;;;;;17.15;5.45;;;;;;;14.63;99.96;100827.09;5011173;28;99594;-30
2022/10/21 00:45:54;;;;;;;16.00;5.53;;;;;;;14.60;100.00;100815.56;5010073;28;101720;-29
2022/10/21 00:48:31;;;;;;;23.23;6.40;;;;;;;14.57;99.95;100813.09;5008824;28;100368;-29
2022/10/21 00:51:01;;;;;;;13.65;6.18;;;;;;;14.55;99.88;100798.69;5011676;28;96629;-30
2022/10/21 00:53:27;;;;;;;15.77;5.90;;;;;;;14.53;100.00;100793.31;5009897;28;101516;-32
2022/10/21 00:55:57;;;;;;;18.40;5.53;;;;;;;14.51;100.00;100787.13;5009876;28;100836;-32
2022/10/21 00:58:26;;;;;;;14.30;5.82;;;;;;;14.49;100.00;100783.69;5010099;28;96626;-29
2022/10/21 01:00:56;;;;;;;12.18;5.85;;;;;;;14.50;100.00;100795.44;5010026;28;96954;-30
2022/10/21 01:03:24;;;;;;;13.35;5.35;;;;;;;14.48;100.00;100787.38;5009688;28;99135;-31
2022/10/21 01:05:50;;;;;;;17.95;6.05;;;;;;;14.45;100.00;100790.34;5009995;28;101318;-29
2022/10/21 01:08:17;;;;;;;13.30;5.70;;;;;;;14.44;100.00;100794.06;5011417;28;96686;-30
2022/10/21 01:10:42;;;;;;;16.05;5.72;;;;;;;14.42;100.00;100793.34;5009885;28;96929;-29
2022/10/21 01:13:27;;;;;;;11.68;5.00;;;;;;;14.42;100.00;100794.19;5011131;28;97338;-30
2022/10/21 01:16:19;;;;;;;15.20;6.25;;;;;;;14.44;100.00;100794.94;5012425;28;97333;-29
2022/10/21 01:19:03;;;;;;;10.70;5.32;;;;;;;14.43;100.00;100795.91;5013929;28;96865;-29
2022/10/21 01:21:43;;;;;;;16.60;5.50;;;;;;;14.42;100.00;100790.59;5013293;28;96765;-29
2022/10/21 01:24:33;;;;;;;13.68;4.78;;;;;;;14.41;100.00;100788.84;5012921;28;100931;-31
2022/10/21 01:27:01;;;;;;;12.95;5.45;;;;;;;14.38;100.00;100789.97;5012927;28;101182;-29
2022/10/21 01:29:48;;;;;;;17.85;5.70;;;;;;;14.36;100.00;100782.91;5014535;28;96785;-29
2022/10/21 01:32:30;;;;;;;15.85;5.57;;;;;;;14.34;100.00;100771.25;5013476;28;96753;-29
2022/10/21 01:35:02;;;;;;;;;;;;;;;14.33;100.00;100772.25;5012967;28;101468;-29
2022/10/21 01:37:44;;;;;;;15.13;4.90;;;;;;;14.31;100.00;100776.94;5014143;28;99170;-29
2022/10/21 01:40:20;;;;;;;17.80;4.88;;;;;;;14.28;100.00;100772.63;5012424;28;97442;-30
2022/10/21 01:43:08;;;;;;;19.35;5.88;;;;;;;14.26;100.00;100769.13;5012835;28;97232;-30
2022/10/21 01:45:41;;;;;;;15.80;5.72;;;;;;;14.24;100.00;100762.94;5014262;28;97573;-29
2022/10/21 01:48:12;;;;;;;15.65;5.85;;;;;;;14.22;100.00;100757.59;5012150;28;100998;-29
2022/10/21 01:50:43;;;;;;;13.57;5.50;;;;;;;14.20;100.00;100759.56;5012836;28;96691;-30
2022/10/21 01:53:13;;;;;;;24.13;6.43;;;;;;;14.20;100.00;100758.69;5012973;28;96753;-29
2022/10/21 01:55:40;;;;;;;16.42;4.93;;;;;;;14.17;100.00;100751.63;5013934;28;97433;-29
2022/10/21 01:58:11;;;;;;;17.02;4.85;;;;;;;14.19;100.00;100752.41;5012766;28;100947;-29
2022/10/21 02:00:38;;;;;;;14.18;4.72;;;;;;;14.18;100.00;100747.06;5012716;28;96847;-30
2022/10/21 02:03:07;;;;;;;14.77;5.65;;;;;;;14.16;100.00;100751.78;5012593;28;96995;-29
2022/10/21 02:05:34;;;;;;;9.07;4.53;;;;;;;14.13;99.88;100739.25;5011762;28;99259;-29
2022/10/21 02:07:59;;;;;;;11.48;5.18;;;;;;;14.11;99.97;100738.53;5013919;28;97864;-30
2022/10/21 02:10:28;;;;;;;13.15;5.15;;;;;;;14.10;99.69;100733.19;5013634;28;96553;-29
2022/10/21 02:12:57;;;;;;;11.40;4.53;;;;;;;14.08;99.80;100737.88;5013622;28;96758;-29
2022/10/21 02:15:24;;;;;;;13.73;5.47;;;;;;;14.03;99.58;100730.91;5013292;28;97413;-29
2022/10/21 02:17:54;;;;;;;10.82;4.55;;;;;;;14.00;99.76;100733.03;5012179;28;100885;-29
2022/10/21 02:20:23;;;;;;;11.75;4.80;;;;;;;13.99;99.63;100734.00;5012322;28;97294;-29
2022/10/21 02:22:49;;;;;;;14.57;4.40;;;;;;;13.94;99.50;100734.38;5012340;28;96864;-30
2022/10/21 02:25:19;;;;;;;11.85;4.70;;;;;;;13.91;99.49;100731.03;5012060;28;101110;-32
2022/10/21 02:27:45;;;;;;;10.80;4.72;;;;;;;13.89;99.54;100720.22;5010964;28;101127;-30
2022/10/21 02:30:11;;;;;;;13.02;4.93;;;;;;;13.84;99.39;100725.16;5011749;28;97270;-30
2022/10/21 02:32:58;;;;;;;10.20;4.63;;;;;;;13.83;99.42;100726.19;5012075;28;97086;-30
2022/10/21 02:35:42;;;;;;;10.88;4.05;;;;;;;13.80;99.54;100726.41;5013194;28;97671;-30
2022/10/21 02:38:17;;;;;;;14.15;5.07;;;;;;;13.77;99.44;100732.06;5013088;28;100769;-29
2022/10/21 02:40:47;;;;;;;9.43;4.78;;;;;;;13.71;99.50;100724.41;5012075;28;96989;-30
2022/10/21 02:43:38;;;;;;;8.52;3.42;;;;;;;13.70;99.25;100730.81;5011778;28;96904;-30
2022/10/21 02:46:13;;;;;;;12.35;4.15;;;;;;;13.67;99.17;100723.75;5012427;28;98063;-30
2022/10/21 02:48:42;;;;;;;8.52;3.67;;;;;;;13.63;99.17;100714.06;5011354;28;100868;-29
2022/10/21 02:51:07;;;;;;;11.13;4.47;;;;;;;13.65;99.58;100717.56;5011865;28;96542;-30
2022/10/21 02:53:33;;;;;;;10.57;4.55;;;;;;;13.63;99.44;100715.94;5013220;28;96790;-29
2022/10/21 02:55:59;;;;;;;11.50;4.60;;;;;;;13.64;99.44;100706.81;5011011;28;101048;-29
2022/10/21 02:58:25;;;;;;;13.23;5.47;;;;;;;13.67;99.54;100715.59;5012895;28;97807;-29
2022/10/21 03:00:50;;;;;;;10.10;4.18;;;;;;;13.65;99.51;100701.22;5013178;28;96590;-30
2022/10/21 03:03:15;;;;;;;10.57;4.22;;;;;;;13.64;99.43;100709.53;5012791;28;103271;-29
2022/10/21 03:05:41;;;;;;;8.13;4.32;;;;;;;13.60;99.34;100704.28;5012614;28;99812;-30
2022/10/21 03:08:06;;;;;;;9.30;4.13;;;;;;;13.60;99.20;100707.03;5012850;28;97820;-29
2022/10/21 03:10:31;;;;;;;12.15;3.47;;;;;;;13.62;98.93;100708.78;5012541;28;109962;-30
2022/10/21 03:12:56;;;;;;;9.43;3.55;;;;;;;13.58;99.42;100714.44;5013007;28;98894;-31
2022/10/21 03:15:22;;;;;;;13.50;3.80;;;;;;;13.56;99.44;100716.44;5010369;28;127587;-29
2022/10/21 03:17:47;;;;;;;13.98;4.68;;;;;;;13.57;99.80;100709.97;5012350;28;107783;-29
2022/10/21 03:20:14;;;;;;;9.60;3.42;;;;;;;13.56;99.54;100712.81;5012228;28;105311;-31
2022/10/21 03:22:39;;;;;;;8.18;4.03;;;;;;;13.59;99.83;100713.47;5011302;28;96805;-30
2022/10/21 03:25:05;;;;;;;7.97;3.75;;;;;;;13.59;99.69;100708.03;5012098;28;112018;-30
2022/10/21 03:27:30;;;;;;;9.27;4.10;;;;;;;13.58;99.41;100716.28;5010931;28;100827;-29
2022/10/21 03:29:56;;;;;;;8.25;3.90;;;;;;;13.54;99.32;100701.19;5012795;28;96608;-29
2022/10/21 03:32:21;;;;;;;10.68;4.22;;;;;;;13.53;99.21;100696.72;5011917;28;111710;-32
2022/10/21 03:34:46;;;;;;;7.70;3.50;;;;;;;13.55;99.69;100701.06;5012399;28;102879;-29
2022/10/21 03:37:12;;;;;;;8.80;3.85;;;;;;;13.53;99.62;100686.69;5012579;28;110459;-30
2022/10/21 03:39:37;;;;;;;5.85;2.97;;;;;;;13.54;99.51;100688.47;5012011;28;96633;-29
2022/10/21 03:42:02;;;;;;;7.68;3.55;;;;;;;13.53;99.60;100683.97;5011724;28;111155;-29
2022/10/21 03:44:28;;;;;;;10.10;3.90;;;;;;;13.51;99.35;100688.66;5011856;28;97436;-30
2022/10/21 03:46:53;;;;;;;6.13;2.90;;;;;;;13.50;99.05;100680.66;5012004;28;110331;-32
2022/10/21 03:49:18;;;;;;;7.53;3.45;;;;;;;13.47;99.26;100676.31;5011655;28;96726;-31
2022/10/21 03:51:43;;;;;;;11.35;3.90;;;;;;;13.47;99.02;100678.16;5012290;28;96736;-29
2022/10/21 03:54:09;;;;;;;11.52;4.88;;;;;;;13.48;99.16;100679.88;5012059;28;103044;-31
2022/10/21 03:56:34;;;;;;;16.77;3.80;;;;;;;13.46;99.25;100684.56;5011932;28;101737;-31
2022/10/21 03:58:59;;;;;;;13.90;3.20;;;;;;;13.44;99.15;100690.13;5012362;28;96509;-30
2022/10/21 04:01:26;;;;;;;8.40;3.10;;;;;;;13.42;99.30;100678.50;5012983;28;97059;-29
2022/10/21 04:03:51;;;;;;;11.23;3.72;;;;;;;13.41;99.13;100686.78;5011658;28;99578;-30
2022/10/21 04:06:16;;;;;;;5.68;3.00;;;;;;;13.38;99.13;100687.88;5012063;28;97415;-29
2022/10/21 04:08:42;;;;;;;6.90;3.00;;;;;;;13.35;98.79;100694.44;5011163;28;109643;-29
2022/10/21 04:11:07;;;;;;;8.77;3.95;;;;;;;13.33;99.04;100703.69;5010291;28;98040;-29
2022/10/21 04:13:32;;;;;;;7.57;3.35;;;;;;;13.31;99.33;100702.94;5011737;28;99602;-30
2022/10/21 04:16:03;;;;;;;9.40;4.05;;;;;;;13.29;99.62;100713.06;5011904;28;97754;-29
2022/10/21 04:18:29;;;;;;;8.63;3.17;;;;;;;13.27;99.79;100706.81;5010629;28;96769;-31
2022/10/21 04:20:54;;;;;;;10.75;3.25;;;;;;;13.26;99.44;100702.38;5012129;28;96802;-30
2022/10/21 04:23:19;;;;;;;6.25;2.75;;;;;;;13.24;99.52;100699.78;5011306;28;108375;-30
2022/10/21 04:25:45;;;;;;;8.48;3.58;;;;;;;13.24;99.49;100699.78;5011731;28;99057;-31
2022/10/21 04:28:11;;;;;;;6.22;3.42;;;;;;;13.23;99.18;100698.06;5011801;28;96704;-30
2022/10/21 04:30:36;;;;;;;5.82;2.80;;;;;;;13.23;99.08;100699.88;5011965;28;96809;-30
2022/10/21 04:33:02;;;;;;;9.07;3.40;;;;;;;13.23;99.39;100705.31;5011309;28;97986;-29
2022/10/21 04:35:27;;;;;;;9.05;3.47;;;;;;;13.22;99.46;100703.59;5011783;28;97270;-29
2022/10/21 04:37:52;;;;;;;12.23;4.05;;;;;;;13.24;99.82;100707.06;5011599;28;96637;-31
2022/10/21 04:40:18;;;;;;;8.52;3.20;;;;;;;13.21;100.00;100704.59;5010559;28;117540;-29
2022/10/21 04:42:48;;;;;;;10.18;3.85;;;;;;;13.21;100.00;100704.59;5010791;28;115670;-29
2022/10/21 04:45:13;;;;;;;11.40;4.00;;;;;;;13.18;100.00;100698.38;5010051;28;100621;-30
2022/10/21 04:47:39;;;;;;;8.57;4.28;;;;;;;13.21;100.00;100699.16;5010947;28;96687;-29
2022/10/21 04:50:04;;;;;;;11.60;3.90;;;;;;;13.24;100.00;100707.06;5011813;28;106987;-30
2022/10/21 04:52:30;;;;;;;8.93;3.58;;;;;;;13.20;100.00;100700.97;5014835;28;99101;-32
2022/10/21 04:54:55;;;;;;;10.48;4.43;;;;;;;13.22;100.00;100700.88;5014810;28;97766;-29
2022/10/21 04:57:20;;;;;;;7.70;3.28;;;;;;;13.23;100.00;100699.88;5014549;28;96802;-29
2022/10/21 04:59:46;;;;;;;11.35;3.60;;;;;;;13.21;100.00;100710.91;5014772;28;100028;-30
2022/10/21 05:02:12;;;;;;;6.30;3.20;;;;;;;13.22;100.00;100709.03;5014279;28;115763;-29
2022/10/21 05:04:37;;;;;;;9.13;3.53;;;;;;;13.22;100.00;100709.03;5013379;28;100062;-29
2022/10/21 05:07:03;;;;;;;8.02;3.00;;;;;;;13.20;100.00;100708.28;5015020;28;96768;-30
2022/10/21 05:09:28;;;;;;;7.43;3.30;;;;;;;13.20;100.00;100706.41;5014398;28;96885;-32
2022/10/21 05:11:53;;;;;;;9.63;3.13;;;;;;;13.19;100.00;100710.13;5013826;28;123751;-30
2022/10/21 05:14:19;;;;;;;11.07;4.05;;;;;;;13.21;100.00;100697.28;5014624;28;102329;-29
2022/10/21 05:16:44;;;;;;;10.43;4.60;;;;;;;13.21;100.00;100707.31;5014132;28;110507;-29
2022/10/21 05:19:10;;;;;;;8.35;3.45;;;;;;;13.21;100.00;100704.59;5014219;28;110845;-29
2022/10/21 05:21:35;;;;;;;6.55;3.67;;;;;;;13.18;99.97;100700.25;5012519;28;100802;-29
2022/10/21 05:24:01;;;;;;;10.52;3.25;;;;;;;13.18;100.00;100698.38;5013955;28;110637;-30
2022/10/21 05:26:27;;;;;;;8.68;3.80;;;;;;;13.16;100.00;100694.91;5014660;28;96566;-30
2022/10/21 05:28:53;;;;;;;8.48;3.58;;;;;;;13.16;99.95;100694.91;5014694;28;96867;-30
2022/10/21 05:31:18;;;;;;;10.52;4.10;;;;;;;13.17;99.98;100693.91;5014442;28;98087;-32
2022/10/21 05:33:44;;;;;;;13.77;3.67;;;;;;;13.17;99.75;100693.91;5012798;28;99700;-30
2022/10/21 05:36:09;;;;;;;7.22;2.83;;;;;;;13.14;99.91;100690.56;5014734;28;96563;-29
2022/10/21 05:38:34;;;;;;;5.28;2.70;;;;;;;13.15;100.00;100695.88;5014864;28;96889;-29
2022/10/21 05:41:00;;;;;;;8.65;3.78;;;;;;;13.11;99.99;100686.25;5014144;28;97929;-30
2022/10/21 05:43:26;;;;;;;10.18;3.85;;;;;;;13.15;100.00;100697.75;5014038;28;100944;-30
2022/10/21 05:45:52;;;;;;;13.52;4.03;;;;;;;13.14;99.97;100696.00;5012343;28;97183;-29
2022/10/21 05:48:17;;;;;;;12.32;4.63;;;;;;;13.14;100.00;100685.13;5013636;28;96889;-29
2022/10/21 05:50:44;;;;;;;9.70;4.38;;;;;;;13.14;99.98;100676.97;5014038;28;97987;-29
2022/10/21 05:53:10;;;;;;;15.68;4.20;;;;;;;13.13;99.71;100667.06;5012283;28;100787;-30
2022/10/21 05:55:35;;;;;;;10.90;3.45;;;;;;;13.12;99.78;100668.91;5014093;28;96517;-29
2022/10/21 05:58:00;;;;;;;10.88;4.05;;;;;;;13.13;99.66;100677.94;5013325;28;110908;-29
2022/10/21 06:00:26;;;;;;;6.78;3.53;;;;;;;13.10;99.67;100676.31;5013944;28;105695;-30
2022/10/21 06:02:51;;;;;;;6.82;3.47;;;;;;;13.10;99.88;100681.75;5014048;28;102630;-30
2022/10/21 06:05:16;;;;;;;10.90;3.38;;;;;;;13.07;99.41;100682.00;5013723;28;96634;-29
2022/10/21 06:07:41;;;;;;;6.25;3.15;;;;;;;13.07;99.44;100679.28;5013716;28;96832;-29
2022/10/21 06:10:07;;;;;;;7.72;3.30;;;;;;;13.07;99.79;100698.31;5013415;28;97870;-30
2022/10/21 06:12:33;;;;;;;6.18;3.13;;;;;;;13.07;99.67;100697.47;5013791;28;97234;-30
2022/10/21 06:14:58;;;;;;;5.30;2.83;;;;;;;13.05;99.84;100691.25;5013655;28;98495;-29
2022/10/21 06:17:23;;;;;;;6.35;2.70;;;;;;;13.07;99.67;100689.31;5013981;28;96900;-29
2022/10/21 06:19:49;;;;;;;4.57;2.65;;;;;;;13.04;99.62;100682.25;5013570;28;98053;-31
2022/10/21 06:22:14;;;;;;;7.22;3.30;;;;;;;13.06;99.41;100682.09;5013038;28;98233;-29
2022/10/21 06:24:40;;;;;;;7.22;2.72;;;;;;;13.05;99.55;100686.69;5013647;28;96535;-29
2022/10/21 06:27:05;;;;;;;12.93;3.47;;;;;;;13.06;99.43;100677.56;5014143;28;96847;-31
2022/10/21 06:29:31;;;;;;;8.35;3.22;;;;;;;13.07;99.53;100671.13;5013215;28;99620;-30
2022/10/21 06:31:56;;;;;;;4.57;2.63;;;;;;;13.06;99.41;100673.94;5013088;28;99216;-30
2022/10/21 06:34:21;;;;;;;6.93;3.10;;;;;;;13.07;99.20;100678.41;5012817;28;97076;-29
2022/10/21 06:36:47;;;;;;;6.78;3.20;;;;;;;13.04;99.34;100670.47;5012223;28;96813;-30
2022/10/21 06:39:12;;;;;;;8.50;4.13;;;;;;;13.07;99.37;100678.41;5013403;28;97891;-30
2022/10/21 06:41:38;;;;;;;11.27;3.25;;;;;;;13.07;99.46;100684.72;5013181;28;97754;-29
2022/10/21 06:44:03;;;;;;;7.75;2.80;;;;;;;13.03;99.16;100677.75;5012980;28;96473;-29
2022/10/21 06:46:28;;;;;;;10.95;3.35;;;;;;;13.07;99.02;100676.56;5013441;28;96929;-30
2022/10/21 06:48:54;;;;;;;5.65;2.80;;;;;;;13.07;99.02;100681.13;5012216;28;103078;-30
2022/10/21 06:51:21;;;;;;;6.72;3.15;;;;;;;13.06;99.10;100674.84;5012986;28;98873;-30
2022/10/21 06:53:51;;;;;;;9.98;3.67;;;;;;;13.07;99.01;100684.72;5011640;28;96549;-29
2022/10/21 06:56:18;;;;;;;9.35;2.85;;;;;;;13.05;98.89;100681.25;5012879;28;96798;-30
2022/10/21 06:58:47;;;;;;;7.28;3.58;;;;;;;13.03;98.97;100668.75;5011024;28;99141;-30
2022/10/21 07:01:22;;;;;;;6.07;2.92;;;;;;;13.06;98.99;100672.13;5012867;28;97911;-29
2022/10/21 07:03:48;;;;;;;7.95;3.22;;;;;;;13.10;99.14;100683.63;5013050;28;96668;-29
2022/10/21 07:06:14;;;;;;;5.53;2.35;;;;;;;13.10;98.87;100689.06;5011262;28;96967;-30
2022/10/21 07:08:40;;;;;;;11.40;3.25;;;;;;;13.12;99.33;100684.38;5015434;28;97475;-29
2022/10/21 07:11:06;;;;;;;6.28;2.72;;;;;;;13.12;98.96;100693.41;5032632;27;99047;-30
2022/10/21 07:13:34;;;;;;;8.68;3.08;;;;;;;13.13;99.32;100708.75;5030970;27;96524;-29
2022/10/21 07:16:12;;;;;;;5.22;2.50;;;;;;;13.13;99.37;100711.47;5031707;28;96881;-31
2022/10/21 07:18:37;;;;;;;5.85;2.40;;;;;;;13.14;99.42;100715.91;5030341;28;100894;-30
2022/10/21 07:21:13;;;;;;;12.00;3.67;;;;;;;13.18;99.99;100728.31;5030819;28;115118;-29
2022/10/21 07:23:39;;;;;;;9.35;2.55;;;;;;;13.20;99.75;100738.19;5030275;28;97122;-31
2022/10/21 07:26:06;;;;;;;5.15;2.58;;;;;;;13.26;99.74;100748.63;5032548;28;96986;-29
2022/10/21 07:28:32;;;;;;;7.65;3.25;;;;;;;13.25;99.58;100745.03;5031104;27;101106;-29
2022/10/21 07:30:57;;;;;;;7.60;3.30;;;;;;;13.28;99.26;100750.28;5030898;28;100870;-29
2022/10/21 07:33:23;;;;;;;7.90;2.50;;;;;;;13.31;99.88;100739.16;5032623;27;96611;-29
2022/10/21 07:35:48;;;;;;;6.55;2.75;;;;;;;13.35;99.67;100739.81;5032684;27;96777;-30
2022/10/21 07:38:14;;;;;;;10.20;2.42;;;;;;;13.36;99.62;100741.53;5032545;28;98044;-28
2022/10/21 07:40:41;;;;;;;11.85;3.28;;;;;;;13.36;99.20;100727.94;5032893;27;97553;-29
2022/10/21 07:43:06;;;;;;;10.80;3.42;;;;;;;13.39;98.96;100733.13;5031138;28;96563;-30
2022/10/21 07:45:32;;;;;;;7.65;3.08;;;;;;;13.39;99.06;100738.59;5030849;28;96785;-29
2022/10/21 07:47:57;;;;;;;8.23;2.78;;;;;;;13.41;99.33;100747.50;5031585;28;97401;-31
2022/10/21 07:50:22;;;;;;;10.48;2.72;;;;;;;13.42;99.34;100754.69;5031622;28;124915;-29
2022/10/21 07:52:48;;;;;;;8.27;2.97;;;;;;;13.42;99.50;100743.81;5032469;27;96599;-29
2022/10/21 07:55:15;;;;;;;4.75;2.40;;;;;;;13.44;99.21;100749.13;5032169;28;103584;-29
2022/10/21 07:57:43;;;;;;;5.97;2.75;;;;;;;13.45;99.31;100750.88;5032309;27;97826;-30
2022/10/21 08:00:10;;;;;;;7.20;3.70;;;;;;;13.45;99.49;100749.03;5031841;27;98883;-30
2022/10/21 08:02:36;;;;;;;7.13;2.50;;;;;;;13.47;99.35;100744.34;5030757;28;97258;-29
2022/10/21 08:05:02;;;;;;;5.38;2.47;;;;;;;13.50;99.13;100744.09;5031280;28;97038;-31
2022/10/21 08:07:30;;;;;;;7.70;3.00;;;;;;;13.52;99.64;100744.00;5031941;28;99876;-30
2022/10/21 08:09:56;;;;;;;6.15;2.75;;;;;;;13.53;99.24;100737.53;5030666;28;100775;-29
2022/10/21 08:12:22;;;;;;;12.88;3.30;;;;;;;13.54;99.12;100731.13;5031519;27;96506;-32
2022/10/21 08:14:47;;;;;;;10.85;3.10;;;;;;;13.55;99.25;100731.00;5031963;27;96814;-30
2022/10/21 08:17:12;;;;;;;9.50;2.88;;;;;;;13.58;99.18;100729.91;5031083;28;119762;-30
2022/10/21 08:19:38;;;;;;;6.45;2.40;;;;;;;13.58;99.22;100730.75;5031206;27;119541;-29
2022/10/21 08:22:03;;;;;;;5.32;2.58;;;;;;;13.60;99.09;100731.50;5031653;28;107587;-30
2022/10/21 08:24:29;;;;;;;10.30;2.83;;;;;;;13.64;98.77;100744.91;5032164;27;96721;-30
2022/10/21 08:26:54;;;;;;;10.70;3.50;;;;;;;13.64;99.03;100747.63;5034818;27;97908;-29
2022/10/21 08:29:19;;;;;;;9.35;3.58;;;;;;;13.67;98.88;100758.28;5035488;27;99083;-29
2022/10/21 08:31:45;;;;;;;11.52;3.63;;;;;;;13.67;99.56;100758.28;5035560;27;96578;-30
2022/10/21 08:34:10;;;;;;;12.55;3.50;;;;;;;13.69;99.34;100762.63;5035551;27;96763;-30
2022/10/21 08:36:37;;;;;;;5.80;2.47;;;;;;;13.75;99.23;100767.59;5034575;27;99222;-29
2022/10/21 08:39:03;;;;;;;9.40;3.15;;;;;;;13.80;99.19;100768.13;5035401;28;96961;-31
2022/10/21 08:41:28;;;;;;;6.30;2.85;;;;;;;13.85;99.24;100761.44;5033944;28;96586;-30
2022/10/21 08:44:09;;;;;;;7.83;2.97;;;;;;;13.88;98.94;100761.22;5035082;28;96870;-30
2022/10/21 08:46:43;;;;;;;9.88;3.28;;;;;;;13.90;99.23;100749.22;5035100;27;97937;-29
2022/10/21 08:49:27;;;;;;;8.75;2.53;;;;;;;13.95;99.03;100751.59;5033941;27;97869;-31
2022/10/21 08:52:02;;;;;;;8.75;2.72;;;;;;;13.97;98.75;100749.63;5034497;28;96587;-29
2022/10/21 08:54:41;;;;;;;6.28;2.72;;;;;;;14.01;98.84;100757.44;5033265;28;96903;-31
2022/10/21 08:57:10;;;;;;;5.47;2.80;;;;;;;14.02;98.82;100764.59;5032775;28;101023;-29
2022/10/21 08:59:36;;;;;;;8.45;3.17;;;;;;;14.10;98.68;100768.59;5032512;28;100986;-29
2022/10/21 09:02:12;;;;;;;11.55;4.25;;;;;;;14.10;98.67;100752.25;5033421;27;96464;-29
2022/10/21 09:04:53;;;;;;;6.28;3.05;;;;;;;14.13;98.98;100754.72;5034035;28;97774;-29
2022/10/21 09:07:31;;;;;;;7.10;2.92;;;;;;;14.16;98.96;100760.81;5032488;28;101151;-29
2022/10/21 09:10:01;;;;;;;7.70;3.10;;;;;;;14.21;98.75;100766.75;5032498;28;99027;-30
2022/10/21 09:13:16;;;;;;;7.35;2.70;;;;;;;14.26;98.47;100769.13;5032563;28;96838;-29
2022/10/21 09:15:57;;;;;;;8.23;2.83;;;;;;;14.30;98.96;100776.09;5008940;27;96850;-29
2022/10/21 09:19:20;;;;;;;14.70;2.95;;;;;;;14.35;98.56;100776.59;5032174;28;101319;-29
2022/10/21 09:22:01;;;;;;;6.22;2.25;;;;;;;14.36;98.79;100778.31;4971579;28;98348;-30
2022/10/21 09:24:57;;;;;;;9.18;2.65;;;;;;;14.43;98.72;100787.75;4955075;28;96843;-29
2022/10/21 09:27:23;;;;;;;10.75;2.95;;;;;;;14.44;98.70;100784.03;5027418;27;96565;-29
2022/10/21 09:30:05;;;;;;;8.02;2.90;;;;;;;14.51;98.48;100772.63;5031409;27;100997;-30
2022/10/21 09:32:35;;;;;;;7.22;2.85;;;;;;;14.56;98.40;100767.72;5031929;28;100900;-29
2022/10/21 09:35:17;;;;;;;13.00;3.17;;;;;;;14.63;98.14;100758.94;5032238;28;96583;-29
2022/10/21 09:37:56;;;;;;;11.45;3.15;;;;;;;14.67;98.30;100765.00;5032882;27;97112;-30
2022/10/21 09:40:27;;;;;;;11.90;2.72;;;;;;;14.70;98.34;100767.47;5031750;28;101222;-29
2022/10/21 09:42:55;;;;;;;11.40;2.83;;;;;;;14.73;98.35;100760.91;5031671;28;98960;-31
2022/10/21 09:45:40;;;;;;;13.10;3.50;;;;;;;14.77;98.36;100765.13;5033061;27;96595;-30
2022/10/21 09:48:27;;;;;;;6.38;3.15;;;;;;;14.84;98.34;100769.09;5027558;28;104951;-30
2022/10/21 09:50:57;;;;;;;9.07;2.80;;;;;;;14.90;97.84;100768.63;5033314;28;99377;-30
2022/10/21 09:53:27;;;;;;;15.98;3.38;;;;;;;14.95;97.71;100763.66;5032664;28;100767;-29
2022/10/21 09:56:01;;;;;;;12.00;2.95;;;;;;;15.02;97.75;100762.16;5032272;28;97130;-31
2022/10/21 09:58:35;;;;;;;7.45;3.10;;;;;;;15.11;97.77;100762.38;5034405;27;96527;-31
2022/10/21 10:01:01;;;;;;;7.25;3.00;;;;;;;15.15;97.40;100767.47;5033890;27;99222;-29
2022/10/21 10:03:34;;;;;;;8.70;2.80;;;;;;;15.24;97.08;100766.72;5033833;27;97796;-31
2022/10/21 10:06:01;;;;;;;11.77;3.67;;;;;;;15.31;96.99;100771.69;5032802;28;96730;-32
2022/10/21 10:08:29;;;;;;;10.02;3.50;;;;;;;15.38;96.88;100765.56;5032761;28;96884;-31
2022/10/21 10:11:20;;;;;;;9.10;3.10;;;;;;;15.46;96.54;100759.47;5033896;27;97994;-30
2022/10/21 10:13:51;;;;;;;6.50;2.55;;;;;;;15.59;95.88;100756.56;5032915;28;101361;-29
2022/10/21 10:16:31;;;;;;;5.68;2.38;;;;;;;15.62;95.14;100749.00;5033591;27;96856;-30
2022/10/21 10:19:14;;;;;;;13.52;2.92;;;;;;;15.67;94.84;100762.25;5032406;28;96936;-29
2022/10/21 10:21:40;;;;;;;9.70;3.40;;;;;;;15.89;95.13;100758.59;5033378;28;97245;-29
2022/10/21 10:24:15;;;;;;;9.60;3.53;;;;;;;16.31;93.81;100761.38;5033439;28;97856;-29
2022/10/21 10:26:41;;;;;;;13.27;3.17;;;;;;;16.74;92.80;100755.72;5032522;28;96569;-31
2022/10/21 10:29:23;;;;;;;6.75;2.72;;;;;;;17.07;91.40;100759.19;5033821;27;96779;-30
2022/10/21 10:31:51;;;;;;;;;;;;;;;17.32;90.16;100766.03;5032646;28;100935;-29
2022/10/21 10:34:20;;;;;;;9.27;2.97;;;;;;;17.62;89.33;100766.97;5033414;28;97585;-29
2022/10/21 10:36:47;;;;;;;7.78;3.08;;;;;;;17.85;87.46;100773.03;5032158;28;96665;-30
2022/10/21 10:39:25;;;;;;;10.15;3.25;;;;;;;17.94;86.53;100765.84;5032461;27;96982;-29
2022/10/21 10:41:51;;;;;;;8.68;2.78;;;;;;;18.10;87.10;100773.50;5031992;28;100646;-29
2022/10/21 10:44:37;;;;;;;11.05;3.42;;;;;;;18.25;85.66;100774.78;5033472;28;97822;-29
2022/10/21 10:47:05;;;;;;;16.88;3.38;;;;;;;18.45;84.53;100778.38;5031458;28;97094;-31
2022/10/21 10:49:40;;;;;;;8.15;3.22;;;;;;;18.64;84.17;100775.56;5029924;27;96937;-29
2022/10/21 10:52:21;;;;;;;14.82;3.08;;;;;;;18.75;83.95;100776.41;5031869;28;101585;-30
2022/10/21 10:54:47;;;;;;;9.60;3.00;;;;;;;18.78;83.19;100773.38;5033302;28;97828;-29
2022/10/21 10:57:26;;;;;;;13.40;3.40;;;;;;;18.86;82.93;100777.13;5031748;27;96642;-29
2022/10/21 11:00:03;;;;;;;8.98;2.92;;;;;;;18.86;82.47;100776.25;5031728;28;96826;-29
2022/10/21 11:02:50;;;;;;;11.40;3.08;;;;;;;18.84;83.58;100767.31;5031745;28;103170;-29
2022/10/21 11:05:30;;;;;;;9.13;3.25;;;;;;;18.84;83.26;100762.69;5033573;28;97171;-29
2022/10/21 11:08:04;;;;;;;11.05;3.13;;;;;;;18.68;82.83;100759.66;5031651;28;96615;-30
2022/10/21 11:10:44;;;;;;;8.25;2.40;;;;;;;18.59;82.82;100760.56;5031688;28;96803;-29
2022/10/21 11:13:18;;;;;;;8.52;2.38;;;;;;;18.51;84.12;100758.56;5030986;28;100843;-29
2022/10/21 11:15:49;;;;;;;9.60;2.80;;;;;;;18.45;84.36;100754.53;5032641;27;97295;-29
2022/10/21 11:18:29;;;;;;;9.88;2.45;;;;;;;18.34;82.78;100757.44;5032489;28;96719;-29
2022/10/21 11:20:59;;;;;;;8.35;2.20;;;;;;;18.52;83.60;100764.91;5031438;28;96759;-30
2022/10/21 11:24:00;;;;;;;4.65;1.80;;;;;;;18.79;83.07;100764.16;5031147;28;100974;-30
2022/10/21 11:26:54;;;;;;;5.45;2.05;;;;;;;19.04;82.92;100760.72;5030905;28;101044;-31
2022/10/21 11:29:34;;;;;;;2.35;1.33;;;;;;;19.26;80.59;100775.06;5032619;27;96494;-30